sensor_id;sensor_type;location;lat;lon;timestamp;temperature;humidity
32476;DHT22;18929;48.008;10.882;2022-11-11T00:01:34;8.60;99.90
32476;DHT22;18929;48.008;10.882;2022-11-11T00:04:01;8.60;99.90
32476;DHT22;18929;48.008;10.882;2022-11-11T00:06:29;8.50;99.90
32476;DHT22;18929;48.008;10.882;2022-11-11T00:08:58;8.60;99.90
32476;DHT22;18929;48.008;10.882;2022-11-11T00:11:25;8.60;99.90
32476;DHT22;18929;48.008;10.882;2022-11-11T00:13:53;8.60;99.90
32476;DHT22;18929;48.008;10.882;2022-11-11T00:16:20;8.60;99.90
32476;DHT22;18929;48.008;10.882;2022-11-11T00:18:47;8.60;99.90
32476;DHT22;18929;48.008;10.882;2022-11-11T00:21:32;8.60;99.90
32476;DHT22;18929;48.008;10.882;2022-11-11T00:24:23;8.50;99.90
32476;DHT22;18929;48.008;10.882;2022-11-11T00:27:09;8.50;99.90
32476;DHT22;18929;48.008;10.882;2022-11-11T00:29:36;8.40;99.90
32476;DHT22;18929;48.008;10.882;2022-11-11T00:32:05;8.40;99.90
32476;DHT22;18929;48.008;10.882;2022-11-11T00:34:54;8.50;99.90
32476;DHT22;18929;48.008;10.882;2022-11-11T00:37:40;8.40;99.90
32476;DHT22;18929;48.008;10.882;2022-11-11T00:40:11;8.30;99.90
32476;DHT22;18929;48.008;10.882;2022-11-11T00:42:39;8.30;99.90
32476;DHT22;18929;48.008;10.882;2022-11-11T00:45:08;8.40;99.90
32476;DHT22;18929;48.008;10.882;2022-11-11T00:47:35;8.40;99.90
32476;DHT22;18929;48.008;10.882;2022-11-11T00:50:22;8.40;99.90
32476;DHT22;18929;48.008;10.882;2022-11-11T00:53:09;8.30;99.90
32476;DHT22;18929;48.008;10.882;2022-11-11T00:55:39;8.30;99.90
32476;DHT22;18929;48.008;10.882;2022-11-11T00:58:06;8.40;99.90
32476;DHT22;18929;48.008;10.882;2022-11-11T01:00:33;8.30;99.90
32476;DHT22;18929;48.008;10.882;2022-11-11T01:03:00;8.30;99.90
32476;DHT22;18929;48.008;10.882;2022-11-11T01:05:28;8.30;99.90
32476;DHT22;18929;48.008;10.882;2022-11-11T01:07:55;8.20;99.90
32476;DHT22;18929;48.008;10.882;2022-11-11T01:10:22;8.20;99.90
32476;DHT22;18929;48.008;10.882;2022-11-11T01:13:15;8.20;99.90
32476;DHT22;18929;48.008;10.882;2022-11-11T01:15:45;8.20;99.90
32476;DHT22;18929;48.008;10.882;2022-11-11T01:18:14;8.10;99.90
32476;DHT22;18929;48.008;10.882;2022-11-11T01:20:42;8.10;99.90
32476;DHT22;18929;48.008;10.882;2022-11-11T01:23:11;8.10;99.90
32476;DHT22;18929;48.008;10.882;2022-11-11T01:25:40;8.10;99.90
32476;DHT22;18929;48.008;10.882;2022-11-11T01:28:09;8.00;99.90
32476;DHT22;18929;48.008;10.882;2022-11-11T01:30:36;8.10;99.90
32476;DHT22;18929;48.008;10.882;2022-11-11T01:33:03;8.10;99.90
32476;DHT22;18929;48.008;10.882;2022-11-11T01:35:31;8.10;99.90
32476;DHT22;18929;48.008;10.882;2022-11-11T01:37:58;8.00;99.90
32476;DHT22;18929;48.008;10.882;2022-11-11T01:40:26;8.00;99.90
32476;DHT22;18929;48.008;10.882;2022-11-11T01:45:53;8.00;99.90
32476;DHT22;18929;48.008;10.882;2022-11-11T01:48:26;8.00;99.90
32476;DHT22;18929;48.008;10.882;2022-11-11T01:51:18;7.90;99.90
32476;DHT22;18929;48.008;10.882;2022-11-11T01:53:50;7.90;99.90
32476;DHT22;18929;48.008;10.882;2022-11-11T01:56:18;7.80;99.90
32476;DHT22;18929;48.008;10.882;2022-11-11T01:58:47;7.90;99.90
32476;DHT22;18929;48.008;10.882;2022-11-11T02:01:17;7.90;99.90
32476;DHT22;18929;48.008;10.882;2022-11-11T02:03:45;7.80;99.90
32476;DHT22;18929;48.008;10.882;2022-11-11T02:06:34;7.80;99.90
32476;DHT22;18929;48.008;10.882;2022-11-11T02:09:02;7.90;99.90
32476;DHT22;18929;48.008;10.882;2022-11-11T02:11:31;7.90;99.90
32476;DHT22;18929;48.008;10.882;2022-11-11T02:14:16;7.90;99.90
32476;DHT22;18929;48.008;10.882;2022-11-11T02:17:04;7.90;99.90
32476;DHT22;18929;48.008;10.882;2022-11-11T02:19:38;7.90;99.90
32476;DHT22;18929;48.008;10.882;2022-11-11T02:22:11;7.90;99.90
32476;DHT22;18929;48.008;10.882;2022-11-11T02:24:40;7.90;99.90
32476;DHT22;18929;48.008;10.882;2022-11-11T02:27:10;7.90;99.90
32476;DHT22;18929;48.008;10.882;2022-11-11T02:29:40;7.90;99.90
32476;DHT22;18929;48.008;10.882;2022-11-11T02:32:08;7.90;99.90
32476;DHT22;18929;48.008;10.882;2022-11-11T02:34:35;8.00;99.90
32476;DHT22;18929;48.008;10.882;2022-11-11T02:37:05;7.90;99.90
32476;DHT22;18929;48.008;10.882;2022-11-11T02:39:34;7.90;99.90
32476;DHT22;18929;48.008;10.882;2022-11-11T02:42:05;7.70;99.90
32476;DHT22;18929;48.008;10.882;2022-11-11T02:44:35;7.90;99.90
32476;DHT22;18929;48.008;10.882;2022-11-11T02:47:05;7.80;99.90
32476;DHT22;18929;48.008;10.882;2022-11-11T02:49:32;7.90;99.90
32476;DHT22;18929;48.008;10.882;2022-11-11T02:51:59;7.90;99.90
32476;DHT22;18929;48.008;10.882;2022-11-11T02:54:27;7.80;99.90
32476;DHT22;18929;48.008;10.882;2022-11-11T02:56:54;7.90;99.90
32476;DHT22;18929;48.008;10.882;2022-11-11T02:59:35;7.80;99.90
32476;DHT22;18929;48.008;10.882;2022-11-11T03:02:03;7.80;99.90
32476;DHT22;18929;48.008;10.882;2022-11-11T03:04:30;7.80;99.90
32476;DHT22;18929;48.008;10.882;2022-11-11T03:06:57;7.70;99.90
32476;DHT22;18929;48.008;10.882;2022-11-11T03:09:26;7.60;99.90
32476;DHT22;18929;48.008;10.882;2022-11-11T03:11:53;7.60;99.90
32476;DHT22;18929;48.008;10.882;2022-11-11T03:14:21;7.60;99.90
32476;DHT22;18929;48.008;10.882;2022-11-11T03:16:49;7.60;99.90
32476;DHT22;18929;48.008;10.882;2022-11-11T03:19:34;7.60;99.90
32476;DHT22;18929;48.008;10.882;2022-11-11T03:22:01;7.50;99.90
32476;DHT22;18929;48.008;10.882;2022-11-11T03:24:28;7.50;99.90
32476;DHT22;18929;48.008;10.882;2022-11-11T03:27:16;7.50;99.90
32476;DHT22;18929;48.008;10.882;2022-11-11T03:29:42;7.40;99.90
32476;DHT22;18929;48.008;10.882;2022-11-11T03:32:11;7.40;99.90
32476;DHT22;18929;48.008;10.882;2022-11-11T03:34:37;7.40;99.90
32476;DHT22;18929;48.008;10.882;2022-11-11T03:37:05;7.40;99.90
32476;DHT22;18929;48.008;10.882;2022-11-11T03:39:50;7.40;99.90
32476;DHT22;18929;48.008;10.882;2022-11-11T03:42:18;7.40;99.90
32476;DHT22;18929;48.008;10.882;2022-11-11T03:44:45;7.30;99.90
32476;DHT22;18929;48.008;10.882;2022-11-11T03:47:14;7.30;99.90
32476;DHT22;18929;48.008;10.882;2022-11-11T03:49:42;7.30;99.90
32476;DHT22;18929;48.008;10.882;2022-11-11T03:52:12;7.20;99.90
32476;DHT22;18929;48.008;10.882;2022-11-11T03:54:39;7.30;99.90
32476;DHT22;18929;48.008;10.882;2022-11-11T03:57:06;7.30;99.90
32476;DHT22;18929;48.008;10.882;2022-11-11T03:59:51;7.30;99.90
32476;DHT22;18929;48.008;10.882;2022-11-11T04:02:20;7.30;99.90
32476;DHT22;18929;48.008;10.882;2022-11-11T04:05:05;7.30;99.90
32476;DHT22;18929;48.008;10.882;2022-11-11T04:07:50;7.30;99.90
32476;DHT22;18929;48.008;10.882;2022-11-11T04:10:36;7.30;99.90
32476;DHT22;18929;48.008;10.882;2022-11-11T04:13:04;7.00;99.90
32476;DHT22;18929;48.008;10.882;2022-11-11T04:15:49;6.90;99.90
32476;DHT22;18929;48.008;10.882;2022-11-11T04:18:37;7.10;99.90
32476;DHT22;18929;48.008;10.882;2022-11-11T04:21:23;7.00;99.90
32476;DHT22;18929;48.008;10.882;2022-11-11T04:24:08;7.20;99.90
32476;DHT22;18929;48.008;10.882;2022-11-11T04:26:56;7.20;99.90
32476;DHT22;18929;48.008;10.882;2022-11-11T04:29:25;7.30;99.90
32476;DHT22;18929;48.008;10.882;2022-11-11T04:31:55;7.20;99.90
32476;DHT22;18929;48.008;10.882;2022-11-11T04:34:43;7.10;99.90
32476;DHT22;18929;48.008;10.882;2022-11-11T04:37:11;7.10;99.90
32476;DHT22;18929;48.008;10.882;2022-11-11T04:39:39;7.10;99.90
32476;DHT22;18929;48.008;10.882;2022-11-11T04:42:23;7.20;99.90
32476;DHT22;18929;48.008;10.882;2022-11-11T04:44:50;6.90;99.90
32476;DHT22;18929;48.008;10.882;2022-11-11T04:47:36;6.90;99.90
32476;DHT22;18929;48.008;10.882;2022-11-11T04:50:05;7.00;99.90
32476;DHT22;18929;48.008;10.882;2022-11-11T04:52:33;7.10;99.90
32476;DHT22;18929;48.008;10.882;2022-11-11T04:55:00;7.10;99.90
32476;DHT22;18929;48.008;10.882;2022-11-11T04:57:46;7.10;99.90
32476;DHT22;18929;48.008;10.882;2022-11-11T05:00:15;7.20;99.90
32476;DHT22;18929;48.008;10.882;2022-11-11T05:02:43;7.20;99.90
32476;DHT22;18929;48.008;10.882;2022-11-11T05:05:30;7.10;99.90
32476;DHT22;18929;48.008;10.882;2022-11-11T05:08:19;7.10;99.90
32476;DHT22;18929;48.008;10.882;2022-11-11T05:11:04;7.10;99.90
32476;DHT22;18929;48.008;10.882;2022-11-11T05:13:31;7.10;99.90
32476;DHT22;18929;48.008;10.882;2022-11-11T05:16:17;7.00;99.90
32476;DHT22;18929;48.008;10.882;2022-11-11T05:19:03;7.00;99.90
32476;DHT22;18929;48.008;10.882;2022-11-11T05:21:52;7.00;99.90
32476;DHT22;18929;48.008;10.882;2022-11-11T05:24:23;7.00;99.90
32476;DHT22;18929;48.008;10.882;2022-11-11T05:27:08;7.10;99.90
32476;DHT22;18929;48.008;10.882;2022-11-11T05:29:45;7.00;99.90
32476;DHT22;18929;48.008;10.882;2022-11-11T05:32:15;7.00;99.90
32476;DHT22;18929;48.008;10.882;2022-11-11T05:34:43;6.80;99.90
32476;DHT22;18929;48.008;10.882;2022-11-11T05:37:12;7.00;99.90
32476;DHT22;18929;48.008;10.882;2022-11-11T05:39:39;6.90;99.90
32476;DHT22;18929;48.008;10.882;2022-11-11T05:42:07;7.00;99.90
32476;DHT22;18929;48.008;10.882;2022-11-11T05:44:34;6.90;99.90
32476;DHT22;18929;48.008;10.882;2022-11-11T05:47:01;6.60;99.90
32476;DHT22;18929;48.008;10.882;2022-11-11T05:49:29;6.90;99.90
32476;DHT22;18929;48.008;10.882;2022-11-11T05:51:55;6.50;99.90
32476;DHT22;18929;48.008;10.882;2022-11-11T05:54:24;6.70;99.90
32476;DHT22;18929;48.008;10.882;2022-11-11T05:57:08;6.60;99.90
32476;DHT22;18929;48.008;10.882;2022-11-11T05:59:36;6.80;99.90
32476;DHT22;18929;48.008;10.882;2022-11-11T06:02:03;6.80;99.90
32476;DHT22;18929;48.008;10.882;2022-11-11T06:04:31;6.80;99.90
32476;DHT22;18929;48.008;10.882;2022-11-11T06:06:59;6.60;99.90
32476;DHT22;18929;48.008;10.882;2022-11-11T06:09:28;6.60;99.90
32476;DHT22;18929;48.008;10.882;2022-11-11T06:11:55;6.80;99.90
32476;DHT22;18929;48.008;10.882;2022-11-11T06:14:22;6.30;99.90
32476;DHT22;18929;48.008;10.882;2022-11-11T06:16:49;6.00;99.90
32476;DHT22;18929;48.008;10.882;2022-11-11T06:19:16;6.50;99.90
32476;DHT22;18929;48.008;10.882;2022-11-11T06:21:43;6.20;99.90
32476;DHT22;18929;48.008;10.882;2022-11-11T06:24:23;6.50;99.90
32476;DHT22;18929;48.008;10.882;2022-11-11T06:26:51;6.60;99.90
32476;DHT22;18929;48.008;10.882;2022-11-11T06:29:18;6.80;99.90
32476;DHT22;18929;48.008;10.882;2022-11-11T06:31:45;6.90;99.90
32476;DHT22;18929;48.008;10.882;2022-11-11T06:34:12;6.90;99.90
32476;DHT22;18929;48.008;10.882;2022-11-11T06:36:39;6.90;99.90
32476;DHT22;18929;48.008;10.882;2022-11-11T06:39:06;6.90;99.90
32476;DHT22;18929;48.008;10.882;2022-11-11T06:41:34;7.00;99.90
32476;DHT22;18929;48.008;10.882;2022-11-11T06:44:06;7.00;99.90
32476;DHT22;18929;48.008;10.882;2022-11-11T06:46:33;6.90;99.90
32476;DHT22;18929;48.008;10.882;2022-11-11T06:49:00;6.80;99.90
32476;DHT22;18929;48.008;10.882;2022-11-11T06:51:28;6.90;99.90
32476;DHT22;18929;48.008;10.882;2022-11-11T06:53:55;6.90;99.90
32476;DHT22;18929;48.008;10.882;2022-11-11T06:56:22;6.80;99.90
32476;DHT22;18929;48.008;10.882;2022-11-11T06:58:49;6.80;99.90
32476;DHT22;18929;48.008;10.882;2022-11-11T07:01:18;6.90;99.90
32476;DHT22;18929;48.008;10.882;2022-11-11T07:03:45;6.90;99.90
32476;DHT22;18929;48.008;10.882;2022-11-11T07:06:13;6.90;99.90
32476;DHT22;18929;48.008;10.882;2022-11-11T07:08:40;7.00;99.90
32476;DHT22;18929;48.008;10.882;2022-11-11T07:11:09;6.90;99.90
32476;DHT22;18929;48.008;10.882;2022-11-11T07:13:37;7.10;99.90
32476;DHT22;18929;48.008;10.882;2022-11-11T07:16:05;6.80;99.90
32476;DHT22;18929;48.008;10.882;2022-11-11T07:18:34;6.70;99.90
32476;DHT22;18929;48.008;10.882;2022-11-11T07:21:02;6.40;99.90
32476;DHT22;18929;48.008;10.882;2022-11-11T07:23:29;6.80;99.90
32476;DHT22;18929;48.008;10.882;2022-11-11T07:25:57;6.80;99.90
32476;DHT22;18929;48.008;10.882;2022-11-11T07:28:24;6.50;99.90
32476;DHT22;18929;48.008;10.882;2022-11-11T07:30:51;6.50;99.90
32476;DHT22;18929;48.008;10.882;2022-11-11T07:33:18;6.20;99.90
32476;DHT22;18929;48.008;10.882;2022-11-11T07:35:46;6.50;99.90
32476;DHT22;18929;48.008;10.882;2022-11-11T07:38:14;6.40;99.90
32476;DHT22;18929;48.008;10.882;2022-11-11T07:40:41;6.80;99.90
32476;DHT22;18929;48.008;10.882;2022-11-11T07:43:09;7.00;99.90
32476;DHT22;18929;48.008;10.882;2022-11-11T07:45:36;7.00;99.90
32476;DHT22;18929;48.008;10.882;2022-11-11T07:48:03;6.90;99.90
32476;DHT22;18929;48.008;10.882;2022-11-11T07:50:31;6.90;99.90
32476;DHT22;18929;48.008;10.882;2022-11-11T07:52:59;6.80;99.90
32476;DHT22;18929;48.008;10.882;2022-11-11T07:55:26;6.90;99.90
32476;DHT22;18929;48.008;10.882;2022-11-11T07:57:53;7.00;99.90
32476;DHT22;18929;48.008;10.882;2022-11-11T08:00:21;7.00;99.90
32476;DHT22;18929;48.008;10.882;2022-11-11T08:02:49;7.10;99.90
32476;DHT22;18929;48.008;10.882;2022-11-11T08:05:16;6.90;99.90
32476;DHT22;18929;48.008;10.882;2022-11-11T08:07:43;6.90;99.90
32476;DHT22;18929;48.008;10.882;2022-11-11T08:10:13;7.00;99.90
32476;DHT22;18929;48.008;10.882;2022-11-11T08:12:40;7.20;99.90
32476;DHT22;18929;48.008;10.882;2022-11-11T08:15:24;7.20;99.90
32476;DHT22;18929;48.008;10.882;2022-11-11T08:17:52;7.40;99.90
32476;DHT22;18929;48.008;10.882;2022-11-11T08:20:20;7.20;99.90
32476;DHT22;18929;48.008;10.882;2022-11-11T08:22:47;7.10;99.90
32476;DHT22;18929;48.008;10.882;2022-11-11T08:25:21;6.90;99.90
32476;DHT22;18929;48.008;10.882;2022-11-11T08:27:47;6.90;99.90
32476;DHT22;18929;48.008;10.882;2022-11-11T08:30:15;7.00;99.90
32476;DHT22;18929;48.008;10.882;2022-11-11T08:32:42;7.10;99.90
32476;DHT22;18929;48.008;10.882;2022-11-11T08:35:09;7.20;99.90
32476;DHT22;18929;48.008;10.882;2022-11-11T08:37:36;7.30;99.90
32476;DHT22;18929;48.008;10.882;2022-11-11T08:40:04;7.40;99.90
32476;DHT22;18929;48.008;10.882;2022-11-11T08:42:33;7.40;99.90
32476;DHT22;18929;48.008;10.882;2022-11-11T08:45:00;7.40;99.90
32476;DHT22;18929;48.008;10.882;2022-11-11T08:47:28;7.40;99.90
32476;DHT22;18929;48.008;10.882;2022-11-11T08:50:19;7.40;99.90
32476;DHT22;18929;48.008;10.882;2022-11-11T08:52:46;7.30;99.90
32476;DHT22;18929;48.008;10.882;2022-11-11T08:55:14;7.50;99.90
32476;DHT22;18929;48.008;10.882;2022-11-11T08:57:43;7.60;99.90
32476;DHT22;18929;48.008;10.882;2022-11-11T09:00:12;7.70;99.90
32476;DHT22;18929;48.008;10.882;2022-11-11T09:02:40;7.70;99.90
32476;DHT22;18929;48.008;10.882;2022-11-11T09:05:08;7.60;99.90
32476;DHT22;18929;48.008;10.882;2022-11-11T09:07:35;7.40;99.90
32476;DHT22;18929;48.008;10.882;2022-11-11T09:10:03;7.60;99.90
32476;DHT22;18929;48.008;10.882;2022-11-11T09:12:30;7.80;99.90
32476;DHT22;18929;48.008;10.882;2022-11-11T09:14:59;7.80;99.90
32476;DHT22;18929;48.008;10.882;2022-11-11T09:17:27;7.70;99.90
32476;DHT22;18929;48.008;10.882;2022-11-11T09:19:54;7.80;99.90
32476;DHT22;18929;48.008;10.882;2022-11-11T09:22:21;7.80;99.90
32476;DHT22;18929;48.008;10.882;2022-11-11T09:24:48;7.50;99.90
32476;DHT22;18929;48.008;10.882;2022-11-11T09:27:19;7.50;99.90
32476;DHT22;18929;48.008;10.882;2022-11-11T09:29:46;7.70;99.90
32476;DHT22;18929;48.008;10.882;2022-11-11T09:32:14;7.80;99.90
32476;DHT22;18929;48.008;10.882;2022-11-11T09:34:43;7.90;99.90
32476;DHT22;18929;48.008;10.882;2022-11-11T09:37:19;7.80;99.90
32476;DHT22;18929;48.008;10.882;2022-11-11T09:39:46;7.80;99.90
32476;DHT22;18929;48.008;10.882;2022-11-11T09:42:19;7.90;99.90
32476;DHT22;18929;48.008;10.882;2022-11-11T09:45:08;8.00;99.90
32476;DHT22;18929;48.008;10.882;2022-11-11T09:47:49;7.80;99.90
32476;DHT22;18929;48.008;10.882;2022-11-11T09:50:22;7.60;99.90
32476;DHT22;18929;48.008;10.882;2022-11-11T09:52:55;7.50;99.90
32476;DHT22;18929;48.008;10.882;2022-11-11T09:55:26;7.80;99.90
32476;DHT22;18929;48.008;10.882;2022-11-11T09:57:59;7.90;99.90
32476;DHT22;18929;48.008;10.882;2022-11-11T10:00:29;8.10;99.90
32476;DHT22;18929;48.008;10.882;2022-11-11T10:03:03;8.20;99.90
32476;DHT22;18929;48.008;10.882;2022-11-11T10:05:41;8.40;99.90
32476;DHT22;18929;48.008;10.882;2022-11-11T10:08:13;8.50;99.90
32476;DHT22;18929;48.008;10.882;2022-11-11T10:10:44;8.60;99.90
32476;DHT22;18929;48.008;10.882;2022-11-11T10:13:14;8.80;99.90
32476;DHT22;18929;48.008;10.882;2022-11-11T10:15:49;8.80;99.90
32476;DHT22;18929;48.008;10.882;2022-11-11T10:18:37;8.80;99.90
32476;DHT22;18929;48.008;10.882;2022-11-11T10:21:13;9.00;99.90
32476;DHT22;18929;48.008;10.882;2022-11-11T10:23:45;9.00;99.90
32476;DHT22;18929;48.008;10.882;2022-11-11T10:26:16;9.00;99.90
32476;DHT22;18929;48.008;10.882;2022-11-11T10:28:47;9.10;99.90
32476;DHT22;18929;48.008;10.882;2022-11-11T10:31:18;9.10;99.90
32476;DHT22;18929;48.008;10.882;2022-11-11T10:33:52;8.90;99.90
32476;DHT22;18929;48.008;10.882;2022-11-11T10:36:23;9.20;99.90
32476;DHT22;18929;48.008;10.882;2022-11-11T10:38:55;9.40;99.90
32476;DHT22;18929;48.008;10.882;2022-11-11T10:41:43;9.40;99.90
32476;DHT22;18929;48.008;10.882;2022-11-11T10:44:24;9.50;99.90
32476;DHT22;18929;48.008;10.882;2022-11-11T10:46:57;9.60;99.90
32476;DHT22;18929;48.008;10.882;2022-11-11T10:49:30;9.60;99.90
32476;DHT22;18929;48.008;10.882;2022-11-11T10:52:02;9.20;99.90
32476;DHT22;18929;48.008;10.882;2022-11-11T10:54:34;9.20;99.90
32476;DHT22;18929;48.008;10.882;2022-11-11T10:57:10;9.50;99.90
32476;DHT22;18929;48.008;10.882;2022-11-11T10:59:44;9.70;99.90
32476;DHT22;18929;48.008;10.882;2022-11-11T11:02:19;8.90;99.90
32476;DHT22;18929;48.008;10.882;2022-11-11T11:04:52;9.60;99.90
32476;DHT22;18929;48.008;10.882;2022-11-11T11:07:26;9.00;99.90
32476;DHT22;18929;48.008;10.882;2022-11-11T11:09:58;9.60;99.90
32476;DHT22;18929;48.008;10.882;2022-11-11T11:12:31;9.80;99.90
32476;DHT22;18929;48.008;10.882;2022-11-11T11:15:05;10.10;99.90
32476;DHT22;18929;48.008;10.882;2022-11-11T11:17:36;10.10;99.90
32476;DHT22;18929;48.008;10.882;2022-11-11T11:20:11;10.20;99.90
32476;DHT22;18929;48.008;10.882;2022-11-11T11:22:45;10.40;99.90
32476;DHT22;18929;48.008;10.882;2022-11-11T11:25:12;10.10;99.90
32476;DHT22;18929;48.008;10.882;2022-11-11T11:27:40;9.40;99.90
32476;DHT22;18929;48.008;10.882;2022-11-11T11:30:12;9.40;99.90
32476;DHT22;18929;48.008;10.882;2022-11-11T11:32:41;9.20;99.90
32476;DHT22;18929;48.008;10.882;2022-11-11T11:35:29;9.50;99.90
32476;DHT22;18929;48.008;10.882;2022-11-11T11:37:56;10.00;99.90
32476;DHT22;18929;48.008;10.882;2022-11-11T11:40:24;10.30;99.90
32476;DHT22;18929;48.008;10.882;2022-11-11T11:42:52;10.70;99.90
32476;DHT22;18929;48.008;10.882;2022-11-11T11:45:21;10.10;99.90
32476;DHT22;18929;48.008;10.882;2022-11-11T11:48:02;9.50;99.90
32476;DHT22;18929;48.008;10.882;2022-11-11T11:50:38;10.10;99.90
32476;DHT22;18929;48.008;10.882;2022-11-11T11:53:33;10.10;99.90
32476;DHT22;18929;48.008;10.882;2022-11-11T11:56:09;10.30;99.90
32476;DHT22;18929;48.008;10.882;2022-11-11T11:58:45;10.70;99.90
32476;DHT22;18929;48.008;10.882;2022-11-11T12:01:23;10.80;99.90
32476;DHT22;18929;48.008;10.882;2022-11-11T12:06:52;11.10;99.90
32476;DHT22;18929;48.008;10.882;2022-11-11T12:09:28;11.10;99.90
32476;DHT22;18929;48.008;10.882;2022-11-11T12:12:03;11.30;99.90
32476;DHT22;18929;48.008;10.882;2022-11-11T12:14:43;11.20;99.90
32476;DHT22;18929;48.008;10.882;2022-11-11T12:17:29;11.10;99.90
32476;DHT22;18929;48.008;10.882;2022-11-11T12:20:03;11.20;99.90
32476;DHT22;18929;48.008;10.882;2022-11-11T12:22:50;11.20;99.90
32476;DHT22;18929;48.008;10.882;2022-11-11T12:25:34;11.10;99.90
32476;DHT22;18929;48.008;10.882;2022-11-11T12:28:12;11.20;99.90
32476;DHT22;18929;48.008;10.882;2022-11-11T12:30:48;11.40;99.90
32476;DHT22;18929;48.008;10.882;2022-11-11T12:33:39;11.40;99.90
32476;DHT22;18929;48.008;10.882;2022-11-11T12:36:13;11.50;99.90
32476;DHT22;18929;48.008;10.882;2022-11-11T12:38:57;11.50;99.90
32476;DHT22;18929;48.008;10.882;2022-11-11T12:41:30;11.40;99.90
32476;DHT22;18929;48.008;10.882;2022-11-11T12:44:08;11.60;99.90
32476;DHT22;18929;48.008;10.882;2022-11-11T12:46:45;11.60;99.90
32476;DHT22;18929;48.008;10.882;2022-11-11T12:49:30;11.70;99.90
32476;DHT22;18929;48.008;10.882;2022-11-11T12:52:11;11.50;99.90
32476;DHT22;18929;48.008;10.882;2022-11-11T12:54:51;11.60;99.90
32476;DHT22;18929;48.008;10.882;2022-11-11T12:57:24;11.00;99.90
32476;DHT22;18929;48.008;10.882;2022-11-11T13:00:07;11.50;99.90
32476;DHT22;18929;48.008;10.882;2022-11-11T13:02:57;11.00;99.90
32476;DHT22;18929;48.008;10.882;2022-11-11T13:05:30;11.40;99.90
32476;DHT22;18929;48.008;10.882;2022-11-11T13:08:25;11.50;99.90
32476;DHT22;18929;48.008;10.882;2022-11-11T13:11:05;11.60;99.90
32476;DHT22;18929;48.008;10.882;2022-11-11T13:13:46;11.80;99.90
32476;DHT22;18929;48.008;10.882;2022-11-11T13:16:15;11.80;99.90
32476;DHT22;18929;48.008;10.882;2022-11-11T13:18:49;11.80;99.90
32476;DHT22;18929;48.008;10.882;2022-11-11T13:21:21;11.80;99.90
32476;DHT22;18929;48.008;10.882;2022-11-11T13:23:51;11.70;99.90
32476;DHT22;18929;48.008;10.882;2022-11-11T13:26:30;11.90;99.90
32476;DHT22;18929;48.008;10.882;2022-11-11T13:31:51;11.70;99.90
32476;DHT22;18929;48.008;10.882;2022-11-11T13:34:21;11.80;99.90
32476;DHT22;18929;48.008;10.882;2022-11-11T13:36:50;11.80;99.90
32476;DHT22;18929;48.008;10.882;2022-11-11T13:39:27;11.70;99.90
32476;DHT22;18929;48.008;10.882;2022-11-11T13:42:00;11.80;99.90
32476;DHT22;18929;48.008;10.882;2022-11-11T13:44:30;11.80;99.90
32476;DHT22;18929;48.008;10.882;2022-11-11T13:47:04;11.70;99.90
32476;DHT22;18929;48.008;10.882;2022-11-11T13:49:34;11.90;99.90
32476;DHT22;18929;48.008;10.882;2022-11-11T13:52:05;11.90;99.90
32476;DHT22;18929;48.008;10.882;2022-11-11T13:54:49;11.60;99.90
32476;DHT22;18929;48.008;10.882;2022-11-11T13:57:22;11.60;99.90
32476;DHT22;18929;48.008;10.882;2022-11-11T13:59:56;11.60;99.90
32476;DHT22;18929;48.008;10.882;2022-11-11T14:02:27;11.50;99.90
32476;DHT22;18929;48.008;10.882;2022-11-11T14:05:19;11.50;99.90
32476;DHT22;18929;48.008;10.882;2022-11-11T14:07:52;11.30;99.90
32476;DHT22;18929;48.008;10.882;2022-11-11T14:10:52;11.70;99.90
32476;DHT22;18929;48.008;10.882;2022-11-11T14:13:38;11.70;99.90
32476;DHT22;18929;48.008;10.882;2022-11-11T14:16:10;11.80;99.90
32476;DHT22;18929;48.008;10.882;2022-11-11T14:18:42;11.90;99.90
32476;DHT22;18929;48.008;10.882;2022-11-11T14:21:10;11.70;99.90
32476;DHT22;18929;48.008;10.882;2022-11-11T14:23:57;11.60;99.90
32476;DHT22;18929;48.008;10.882;2022-11-11T14:26:26;11.60;99.90
32476;DHT22;18929;48.008;10.882;2022-11-11T14:28:57;11.40;99.90
32476;DHT22;18929;48.008;10.882;2022-11-11T14:31:50;11.40;99.90
32476;DHT22;18929;48.008;10.882;2022-11-11T14:34:29;11.10;99.90
32476;DHT22;18929;48.008;10.882;2022-11-11T14:37:03;11.10;99.90
32476;DHT22;18929;48.008;10.882;2022-11-11T14:39:38;11.00;99.90
32476;DHT22;18929;48.008;10.882;2022-11-11T14:42:41;11.00;99.90
32476;DHT22;18929;48.008;10.882;2022-11-11T14:47:53;11.00;99.90
32476;DHT22;18929;48.008;10.882;2022-11-11T14:50:41;10.80;99.90
32476;DHT22;18929;48.008;10.882;2022-11-11T14:53:13;10.70;99.90
32476;DHT22;18929;48.008;10.882;2022-11-11T14:55:42;10.60;99.90
32476;DHT22;18929;48.008;10.882;2022-11-11T14:58:12;10.50;99.90
32476;DHT22;18929;48.008;10.882;2022-11-11T15:00:45;10.60;99.90
32476;DHT22;18929;48.008;10.882;2022-11-11T15:03:26;10.60;99.90
32476;DHT22;18929;48.008;10.882;2022-11-11T15:05:59;10.60;99.90
32476;DHT22;18929;48.008;10.882;2022-11-11T15:08:34;10.50;99.90
32476;DHT22;18929;48.008;10.882;2022-11-11T15:11:20;10.50;99.90
32476;DHT22;18929;48.008;10.882;2022-11-11T15:14:03;10.30;99.90
32476;DHT22;18929;48.008;10.882;2022-11-11T15:16:46;10.10;99.90
32476;DHT22;18929;48.008;10.882;2022-11-11T15:19:38;10.00;99.90
32476;DHT22;18929;48.008;10.882;2022-11-11T15:22:31;10.10;99.90
32476;DHT22;18929;48.008;10.882;2022-11-11T15:25:11;10.10;99.90
32476;DHT22;18929;48.008;10.882;2022-11-11T15:27:47;10.20;99.90
32476;DHT22;18929;48.008;10.882;2022-11-11T15:30:19;10.20;99.90
32476;DHT22;18929;48.008;10.882;2022-11-11T15:32:57;10.30;99.90
32476;DHT22;18929;48.008;10.882;2022-11-11T15:35:34;10.40;99.90
32476;DHT22;18929;48.008;10.882;2022-11-11T15:38:03;10.50;99.90
32476;DHT22;18929;48.008;10.882;2022-11-11T15:40:42;10.30;99.90
32476;DHT22;18929;48.008;10.882;2022-11-11T15:43:14;9.90;99.90
32476;DHT22;18929;48.008;10.882;2022-11-11T15:46:18;9.80;99.90
32476;DHT22;18929;48.008;10.882;2022-11-11T15:48:47;9.80;99.90
32476;DHT22;18929;48.008;10.882;2022-11-11T15:51:26;9.90;99.90
32476;DHT22;18929;48.008;10.882;2022-11-11T15:54:08;10.10;99.90
32476;DHT22;18929;48.008;10.882;2022-11-11T15:56:36;10.10;99.90
32476;DHT22;18929;48.008;10.882;2022-11-11T15:59:17;10.10;99.90
32476;DHT22;18929;48.008;10.882;2022-11-11T16:01:45;10.20;99.90
32476;DHT22;18929;48.008;10.882;2022-11-11T16:04:16;10.10;99.90
32476;DHT22;18929;48.008;10.882;2022-11-11T16:06:45;10.40;99.90
32476;DHT22;18929;48.008;10.882;2022-11-11T16:09:15;9.90;99.90
32476;DHT22;18929;48.008;10.882;2022-11-11T16:11:45;9.60;99.90
32476;DHT22;18929;48.008;10.882;2022-11-11T16:14:20;9.30;99.90
32476;DHT22;18929;48.008;10.882;2022-11-11T16:16:50;9.30;99.90